sensor_id;sensor_type;location;lat;lon;timestamp;P1;durP1;ratioP1;P2;durP2;ratioP2
18544;SDS011;9402;51.460;7.276;2023-01-05T00:00:09;30.47;;;7.00;;
18544;SDS011;9402;51.460;7.276;2023-01-05T00:02:12;37.20;;;5.27;;
18544;SDS011;9402;51.460;7.276;2023-01-05T00:04:15;39.60;;;5.60;;
18544;SDS011;9402;51.460;7.276;2023-01-05T00:06:18;28.17;;;5.47;;
18544;SDS011;9402;51.460;7.276;2023-01-05T00:08:20;36.40;;;5.77;;
18544;SDS011;9402;51.460;7.276;2023-01-05T00:10:23;40.10;;;6.50;;
18544;SDS011;9402;51.460;7.276;2023-01-05T00:12:42;38.90;;;6.73;;
18544;SDS011;9402;51.460;7.276;2023-01-05T00:15:02;29.80;;;5.97;;
18544;SDS011;9402;51.460;7.276;2023-01-05T00:17:23;32.63;;;5.17;;
18544;SDS011;9402;51.460;7.276;2023-01-05T00:19:44;30.50;;;5.53;;
18544;SDS011;9402;51.460;7.276;2023-01-05T00:22:07;27.03;;;6.10;;
18544;SDS011;9402;51.460;7.276;2023-01-05T00:24:33;35.73;;;5.83;;
18544;SDS011;9402;51.460;7.276;2023-01-05T00:26:35;32.87;;;5.40;;
18544;SDS011;9402;51.460;7.276;2023-01-05T00:28:38;31.90;;;5.67;;
18544;SDS011;9402;51.460;7.276;2023-01-05T00:30:41;37.07;;;5.47;;
18544;SDS011;9402;51.460;7.276;2023-01-05T00:32:44;28.00;;;4.77;;
18544;SDS011;9402;51.460;7.276;2023-01-05T00:34:48;26.70;;;5.20;;
18544;SDS011;9402;51.460;7.276;2023-01-05T00:36:53;31.27;;;5.43;;
18544;SDS011;9402;51.460;7.276;2023-01-05T00:38:55;29.30;;;5.33;;
18544;SDS011;9402;51.460;7.276;2023-01-05T00:40:57;27.97;;;5.10;;
18544;SDS011;9402;51.460;7.276;2023-01-05T00:43:00;36.83;;;6.23;;
18544;SDS011;9402;51.460;7.276;2023-01-05T00:45:03;33.43;;;6.23;;
18544;SDS011;9402;51.460;7.276;2023-01-05T00:47:06;35.70;;;4.83;;
18544;SDS011;9402;51.460;7.276;2023-01-05T00:49:09;27.17;;;5.27;;
18544;SDS011;9402;51.460;7.276;2023-01-05T00:51:12;27.57;;;5.27;;
18544;SDS011;9402;51.460;7.276;2023-01-05T00:53:15;29.93;;;5.00;;
18544;SDS011;9402;51.460;7.276;2023-01-05T00:55:17;39.70;;;6.10;;
18544;SDS011;9402;51.460;7.276;2023-01-05T00:57:20;30.40;;;5.30;;
18544;SDS011;9402;51.460;7.276;2023-01-05T00:59:22;35.10;;;6.20;;
18544;SDS011;9402;51.460;7.276;2023-01-05T01:01:24;39.00;;;5.90;;
18544;SDS011;9402;51.460;7.276;2023-01-05T01:03:27;30.43;;;5.43;;
18544;SDS011;9402;51.460;7.276;2023-01-05T01:05:29;29.90;;;5.27;;
18544;SDS011;9402;51.460;7.276;2023-01-05T01:07:33;33.90;;;5.23;;
18544;SDS011;9402;51.460;7.276;2023-01-05T01:09:35;32.27;;;4.40;;
18544;SDS011;9402;51.460;7.276;2023-01-05T01:11:39;40.00;;;5.40;;
18544;SDS011;9402;51.460;7.276;2023-01-05T01:13:43;33.57;;;5.27;;
18544;SDS011;9402;51.460;7.276;2023-01-05T01:15:45;31.33;;;5.20;;
18544;SDS011;9402;51.460;7.276;2023-01-05T01:17:48;25.13;;;5.63;;
18544;SDS011;9402;51.460;7.276;2023-01-05T01:19:50;23.03;;;5.00;;
18544;SDS011;9402;51.460;7.276;2023-01-05T01:21:52;18.17;;;5.20;;
18544;SDS011;9402;51.460;7.276;2023-01-05T01:23:56;31.23;;;5.13;;
18544;SDS011;9402;51.460;7.276;2023-01-05T01:25:58;24.80;;;5.10;;
18544;SDS011;9402;51.460;7.276;2023-01-05T01:28:03;33.77;;;6.00;;
18544;SDS011;9402;51.460;7.276;2023-01-05T01:30:06;30.70;;;5.67;;
18544;SDS011;9402;51.460;7.276;2023-01-05T01:32:09;29.43;;;5.70;;
18544;SDS011;9402;51.460;7.276;2023-01-05T01:34:12;25.80;;;5.47;;
18544;SDS011;9402;51.460;7.276;2023-01-05T01:36:14;35.07;;;5.80;;
18544;SDS011;9402;51.460;7.276;2023-01-05T01:38:17;38.50;;;6.13;;
18544;SDS011;9402;51.460;7.276;2023-01-05T01:40:20;31.30;;;5.10;;
18544;SDS011;9402;51.460;7.276;2023-01-05T01:42:23;29.87;;;6.17;;
18544;SDS011;9402;51.460;7.276;2023-01-05T01:44:47;29.80;;;5.17;;
18544;SDS011;9402;51.460;7.276;2023-01-05T01:46:51;31.60;;;5.33;;
18544;SDS011;9402;51.460;7.276;2023-01-05T01:48:55;31.03;;;4.93;;
18544;SDS011;9402;51.460;7.276;2023-01-05T01:50:59;32.17;;;5.73;;
18544;SDS011;9402;51.460;7.276;2023-01-05T01:53:05;37.23;;;5.13;;
18544;SDS011;9402;51.460;7.276;2023-01-05T01:55:09;36.03;;;5.87;;
18544;SDS011;9402;51.460;7.276;2023-01-05T01:57:13;32.77;;;5.13;;
18544;SDS011;9402;51.460;7.276;2023-01-05T01:59:16;23.50;;;5.57;;
18544;SDS011;9402;51.460;7.276;2023-01-05T02:01:19;34.80;;;6.40;;
18544;SDS011;9402;51.460;7.276;2023-01-05T02:03:21;32.53;;;5.20;;
18544;SDS011;9402;51.460;7.276;2023-01-05T02:05:25;25.33;;;5.37;;
18544;SDS011;9402;51.460;7.276;2023-01-05T02:07:31;20.13;;;4.30;;
18544;SDS011;9402;51.460;7.276;2023-01-05T02:09:34;31.40;;;5.57;;
18544;SDS011;9402;51.460;7.276;2023-01-05T02:11:40;37.67;;;4.70;;
18544;SDS011;9402;51.460;7.276;2023-01-05T02:13:52;27.33;;;5.30;;
18544;SDS011;9402;51.460;7.276;2023-01-05T02:16:04;27.60;;;5.30;;
18544;SDS011;9402;51.460;7.276;2023-01-05T02:18:15;23.20;;;5.27;;
18544;SDS011;9402;51.460;7.276;2023-01-05T02:20:28;22.53;;;5.30;;
18544;SDS011;9402;51.460;7.276;2023-01-05T02:25:11;33.30;;;5.40;;
18544;SDS011;9402;51.460;7.276;2023-01-05T02:27:39;30.83;;;5.57;;
18544;SDS011;9402;51.460;7.276;2023-01-05T02:29:58;31.23;;;5.03;;
18544;SDS011;9402;51.460;7.276;2023-01-05T02:32:40;19.20;;;4.90;;
18544;SDS011;9402;51.460;7.276;2023-01-05T02:34:49;34.30;;;5.63;;
18544;SDS011;9402;51.460;7.276;2023-01-05T02:36:59;28.83;;;5.80;;
18544;SDS011;9402;51.460;7.276;2023-01-05T02:39:06;34.43;;;6.00;;
18544;SDS011;9402;51.460;7.276;2023-01-05T02:41:12;21.23;;;4.87;;
18544;SDS011;9402;51.460;7.276;2023-01-05T02:43:19;31.63;;;5.90;;
18544;SDS011;9402;51.460;7.276;2023-01-05T02:45:22;33.07;;;5.90;;
18544;SDS011;9402;51.460;7.276;2023-01-05T02:47:34;25.60;;;4.57;;
18544;SDS011;9402;51.460;7.276;2023-01-05T02:49:40;32.27;;;5.60;;
18544;SDS011;9402;51.460;7.276;2023-01-05T02:51:43;38.17;;;6.13;;
18544;SDS011;9402;51.460;7.276;2023-01-05T02:53:50;31.93;;;5.03;;
18544;SDS011;9402;51.460;7.276;2023-01-05T02:55:58;30.50;;;4.87;;
18544;SDS011;9402;51.460;7.276;2023-01-05T02:58:03;36.07;;;6.40;;
18544;SDS011;9402;51.460;7.276;2023-01-05T03:00:08;31.50;;;6.07;;
18544;SDS011;9402;51.460;7.276;2023-01-05T03:02:12;27.03;;;5.50;;
18544;SDS011;9402;51.460;7.276;2023-01-05T03:04:16;31.20;;;5.43;;
18544;SDS011;9402;51.460;7.276;2023-01-05T03:06:24;31.03;;;5.73;;
18544;SDS011;9402;51.460;7.276;2023-01-05T03:08:29;39.40;;;5.70;;
18544;SDS011;9402;51.460;7.276;2023-01-05T03:10:34;26.67;;;5.10;;
18544;SDS011;9402;51.460;7.276;2023-01-05T03:12:57;25.20;;;5.33;;
18544;SDS011;9402;51.460;7.276;2023-01-05T03:15:19;30.83;;;5.97;;
18544;SDS011;9402;51.460;7.276;2023-01-05T03:17:25;34.90;;;5.57;;
18544;SDS011;9402;51.460;7.276;2023-01-05T03:19:29;22.73;;;4.90;;
18544;SDS011;9402;51.460;7.276;2023-01-05T03:21:39;22.33;;;4.67;;
18544;SDS011;9402;51.460;7.276;2023-01-05T03:23:59;16.87;;;4.80;;
18544;SDS011;9402;51.460;7.276;2023-01-05T03:26:19;27.60;;;4.60;;
18544;SDS011;9402;51.460;7.276;2023-01-05T03:28:40;28.03;;;5.83;;
18544;SDS011;9402;51.460;7.276;2023-01-05T03:31:02;33.50;;;6.30;;
18544;SDS011;9402;51.460;7.276;2023-01-05T03:33:28;34.20;;;5.80;;
18544;SDS011;9402;51.460;7.276;2023-01-05T03:35:54;36.10;;;6.20;;
18544;SDS011;9402;51.460;7.276;2023-01-05T03:38:04;36.40;;;6.00;;
18544;SDS011;9402;51.460;7.276;2023-01-05T03:40:11;37.57;;;6.37;;
18544;SDS011;9402;51.460;7.276;2023-01-05T03:42:17;34.63;;;6.37;;
18544;SDS011;9402;51.460;7.276;2023-01-05T03:44:20;31.93;;;6.83;;
18544;SDS011;9402;51.460;7.276;2023-01-05T03:46:22;38.67;;;6.47;;
18544;SDS011;9402;51.460;7.276;2023-01-05T03:48:25;42.13;;;7.17;;
18544;SDS011;9402;51.460;7.276;2023-01-05T03:50:28;30.37;;;5.30;;
18544;SDS011;9402;51.460;7.276;2023-01-05T03:52:30;26.53;;;4.90;;
18544;SDS011;9402;51.460;7.276;2023-01-05T03:54:34;29.00;;;5.27;;
18544;SDS011;9402;51.460;7.276;2023-01-05T03:56:36;37.90;;;6.63;;
18544;SDS011;9402;51.460;7.276;2023-01-05T03:58:39;26.43;;;4.87;;
18544;SDS011;9402;51.460;7.276;2023-01-05T04:00:41;29.57;;;4.70;;
18544;SDS011;9402;51.460;7.276;2023-01-05T04:02:43;26.00;;;5.00;;
18544;SDS011;9402;51.460;7.276;2023-01-05T04:04:46;49.37;;;5.67;;
18544;SDS011;9402;51.460;7.276;2023-01-05T04:06:48;35.53;;;5.97;;
18544;SDS011;9402;51.460;7.276;2023-01-05T04:08:50;43.03;;;6.27;;
18544;SDS011;9402;51.460;7.276;2023-01-05T04:10:54;31.50;;;5.80;;
18544;SDS011;9402;51.460;7.276;2023-01-05T04:12:56;35.60;;;6.30;;
18544;SDS011;9402;51.460;7.276;2023-01-05T04:14:59;33.20;;;5.83;;
18544;SDS011;9402;51.460;7.276;2023-01-05T04:17:01;27.30;;;5.93;;
18544;SDS011;9402;51.460;7.276;2023-01-05T04:19:03;20.93;;;5.17;;
18544;SDS011;9402;51.460;7.276;2023-01-05T04:21:06;33.83;;;5.67;;
18544;SDS011;9402;51.460;7.276;2023-01-05T04:23:08;30.70;;;5.67;;
18544;SDS011;9402;51.460;7.276;2023-01-05T04:25:10;27.30;;;6.27;;
18544;SDS011;9402;51.460;7.276;2023-01-05T04:27:14;33.17;;;5.80;;
18544;SDS011;9402;51.460;7.276;2023-01-05T04:29:17;24.67;;;6.20;;
18544;SDS011;9402;51.460;7.276;2023-01-05T04:31:19;37.73;;;6.60;;
18544;SDS011;9402;51.460;7.276;2023-01-05T04:33:22;43.73;;;7.20;;
18544;SDS011;9402;51.460;7.276;2023-01-05T04:35:24;30.97;;;6.27;;
18544;SDS011;9402;51.460;7.276;2023-01-05T04:37:27;47.63;;;7.10;;
18544;SDS011;9402;51.460;7.276;2023-01-05T04:39:29;32.07;;;5.80;;
18544;SDS011;9402;51.460;7.276;2023-01-05T04:41:31;21.40;;;5.20;;
18544;SDS011;9402;51.460;7.276;2023-01-05T04:43:35;36.50;;;6.60;;
18544;SDS011;9402;51.460;7.276;2023-01-05T04:45:38;45.70;;;7.37;;
18544;SDS011;9402;51.460;7.276;2023-01-05T04:47:41;35.27;;;6.90;;
18544;SDS011;9402;51.460;7.276;2023-01-05T04:49:43;33.97;;;6.77;;
18544;SDS011;9402;51.460;7.276;2023-01-05T04:51:45;32.50;;;6.90;;
18544;SDS011;9402;51.460;7.276;2023-01-05T04:53:48;45.30;;;6.03;;
18544;SDS011;9402;51.460;7.276;2023-01-05T04:55:50;35.97;;;5.97;;
18544;SDS011;9402;51.460;7.276;2023-01-05T04:57:53;29.10;;;5.70;;
18544;SDS011;9402;51.460;7.276;2023-01-05T04:59:56;27.53;;;5.93;;
18544;SDS011;9402;51.460;7.276;2023-01-05T05:01:59;35.97;;;6.70;;
18544;SDS011;9402;51.460;7.276;2023-01-05T05:04:02;42.03;;;7.13;;
18544;SDS011;9402;51.460;7.276;2023-01-05T05:06:05;35.17;;;5.50;;
18544;SDS011;9402;51.460;7.276;2023-01-05T05:08:07;38.07;;;7.20;;
18544;SDS011;9402;51.460;7.276;2023-01-05T05:10:10;37.33;;;6.00;;
18544;SDS011;9402;51.460;7.276;2023-01-05T05:12:15;49.17;;;7.63;;
18544;SDS011;9402;51.460;7.276;2023-01-05T05:14:19;31.93;;;6.47;;
18544;SDS011;9402;51.460;7.276;2023-01-05T05:16:23;29.53;;;5.87;;
18544;SDS011;9402;51.460;7.276;2023-01-05T05:18:25;32.30;;;5.67;;
18544;SDS011;9402;51.460;7.276;2023-01-05T05:20:27;29.03;;;5.00;;
18544;SDS011;9402;51.460;7.276;2023-01-05T05:22:30;26.50;;;5.57;;
18544;SDS011;9402;51.460;7.276;2023-01-05T05:24:32;34.10;;;5.60;;
18544;SDS011;9402;51.460;7.276;2023-01-05T05:26:35;37.03;;;6.57;;
18544;SDS011;9402;51.460;7.276;2023-01-05T05:28:37;42.10;;;5.80;;
18544;SDS011;9402;51.460;7.276;2023-01-05T05:30:39;36.27;;;6.27;;
18544;SDS011;9402;51.460;7.276;2023-01-05T05:32:43;33.97;;;5.23;;
18544;SDS011;9402;51.460;7.276;2023-01-05T05:34:45;35.30;;;5.60;;
18544;SDS011;9402;51.460;7.276;2023-01-05T05:36:47;24.80;;;5.63;;
18544;SDS011;9402;51.460;7.276;2023-01-05T05:38:50;31.43;;;6.47;;
18544;SDS011;9402;51.460;7.276;2023-01-05T05:40:52;32.50;;;6.13;;
18544;SDS011;9402;51.460;7.276;2023-01-05T05:42:55;27.90;;;5.00;;
18544;SDS011;9402;51.460;7.276;2023-01-05T05:44:57;29.70;;;5.60;;
18544;SDS011;9402;51.460;7.276;2023-01-05T05:47:00;37.30;;;5.90;;
18544;SDS011;9402;51.460;7.276;2023-01-05T05:49:03;39.73;;;6.10;;
18544;SDS011;9402;51.460;7.276;2023-01-05T05:51:06;36.40;;;6.67;;
18544;SDS011;9402;51.460;7.276;2023-01-05T05:53:08;29.80;;;5.50;;
18544;SDS011;9402;51.460;7.276;2023-01-05T05:55:10;35.67;;;6.43;;
18544;SDS011;9402;51.460;7.276;2023-01-05T05:57:13;35.20;;;6.40;;
18544;SDS011;9402;51.460;7.276;2023-01-05T05:59:16;26.33;;;5.13;;
18544;SDS011;9402;51.460;7.276;2023-01-05T06:01:19;30.50;;;6.73;;
18544;SDS011;9402;51.460;7.276;2023-01-05T06:03:21;33.93;;;5.43;;
18544;SDS011;9402;51.460;7.276;2023-01-05T06:05:25;31.00;;;6.77;;
18544;SDS011;9402;51.460;7.276;2023-01-05T06:07:27;40.00;;;6.43;;
18544;SDS011;9402;51.460;7.276;2023-01-05T06:09:29;28.50;;;6.37;;
18544;SDS011;9402;51.460;7.276;2023-01-05T06:11:32;29.30;;;6.83;;
18544;SDS011;9402;51.460;7.276;2023-01-05T06:13:34;31.13;;;6.00;;
18544;SDS011;9402;51.460;7.276;2023-01-05T06:15:37;28.80;;;5.23;;
18544;SDS011;9402;51.460;7.276;2023-01-05T06:17:39;35.10;;;6.27;;
18544;SDS011;9402;51.460;7.276;2023-01-05T06:19:41;34.07;;;5.87;;
18544;SDS011;9402;51.460;7.276;2023-01-05T06:21:45;37.03;;;6.90;;
18544;SDS011;9402;51.460;7.276;2023-01-05T06:23:47;46.13;;;6.83;;
18544;SDS011;9402;51.460;7.276;2023-01-05T06:25:50;35.20;;;6.90;;
18544;SDS011;9402;51.460;7.276;2023-01-05T06:27:52;34.23;;;5.90;;
18544;SDS011;9402;51.460;7.276;2023-01-05T06:29:54;33.43;;;7.60;;
18544;SDS011;9402;51.460;7.276;2023-01-05T06:31:57;46.97;;;6.97;;
18544;SDS011;9402;51.460;7.276;2023-01-05T06:33:59;54.90;;;8.53;;
18544;SDS011;9402;51.460;7.276;2023-01-05T06:36:02;44.60;;;8.20;;
18544;SDS011;9402;51.460;7.276;2023-01-05T06:38:06;28.40;;;6.77;;
18544;SDS011;9402;51.460;7.276;2023-01-05T06:40:10;44.53;;;7.37;;
18544;SDS011;9402;51.460;7.276;2023-01-05T06:42:12;35.53;;;6.70;;
18544;SDS011;9402;51.460;7.276;2023-01-05T06:44:15;27.83;;;6.40;;
18544;SDS011;9402;51.460;7.276;2023-01-05T06:46:17;43.93;;;7.37;;
18544;SDS011;9402;51.460;7.276;2023-01-05T06:48:19;42.27;;;7.40;;
18544;SDS011;9402;51.460;7.276;2023-01-05T06:50:22;41.70;;;8.00;;
18544;SDS011;9402;51.460;7.276;2023-01-05T06:52:24;39.30;;;7.90;;
18544;SDS011;9402;51.460;7.276;2023-01-05T06:54:28;44.20;;;8.27;;
18544;SDS011;9402;51.460;7.276;2023-01-05T06:56:30;41.93;;;8.67;;
18544;SDS011;9402;51.460;7.276;2023-01-05T06:58:32;27.17;;;7.30;;
18544;SDS011;9402;51.460;7.276;2023-01-05T07:00:35;41.13;;;7.70;;
18544;SDS011;9402;51.460;7.276;2023-01-05T07:02:37;33.30;;;7.20;;
18544;SDS011;9402;51.460;7.276;2023-01-05T07:04:39;43.33;;;7.67;;
18544;SDS011;9402;51.460;7.276;2023-01-05T07:06:42;45.03;;;7.17;;
18544;SDS011;9402;51.460;7.276;2023-01-05T07:08:44;38.73;;;8.03;;
18544;SDS011;9402;51.460;7.276;2023-01-05T07:10:48;31.13;;;7.80;;
18544;SDS011;9402;51.460;7.276;2023-01-05T07:12:50;37.03;;;7.77;;
18544;SDS011;9402;51.460;7.276;2023-01-05T07:14:52;37.20;;;7.23;;
18544;SDS011;9402;51.460;7.276;2023-01-05T07:16:55;31.77;;;8.90;;
18544;SDS011;9402;51.460;7.276;2023-01-05T07:18:57;40.07;;;7.83;;
18544;SDS011;9402;51.460;7.276;2023-01-05T07:20:59;35.17;;;8.20;;
18544;SDS011;9402;51.460;7.276;2023-01-05T07:23:02;37.00;;;7.73;;
18544;SDS011;9402;51.460;7.276;2023-01-05T07:25:04;43.90;;;7.83;;
18544;SDS011;9402;51.460;7.276;2023-01-05T07:27:09;36.03;;;10.00;;
18544;SDS011;9402;51.460;7.276;2023-01-05T07:29:11;44.47;;;8.93;;
18544;SDS011;9402;51.460;7.276;2023-01-05T07:31:13;39.33;;;8.63;;
18544;SDS011;9402;51.460;7.276;2023-01-05T07:33:16;41.13;;;7.80;;
18544;SDS011;9402;51.460;7.276;2023-01-05T07:35:18;40.73;;;8.73;;
18544;SDS011;9402;51.460;7.276;2023-01-05T07:37:20;32.07;;;8.17;;
18544;SDS011;9402;51.460;7.276;2023-01-05T07:39:23;36.13;;;9.00;;
18544;SDS011;9402;51.460;7.276;2023-01-05T07:41:25;44.00;;;11.63;;
18544;SDS011;9402;51.460;7.276;2023-01-05T07:43:29;38.43;;;10.00;;
18544;SDS011;9402;51.460;7.276;2023-01-05T07:45:32;39.03;;;8.50;;
18544;SDS011;9402;51.460;7.276;2023-01-05T07:47:34;38.70;;;9.20;;
18544;SDS011;9402;51.460;7.276;2023-01-05T07:49:39;40.90;;;9.50;;
18544;SDS011;9402;51.460;7.276;2023-01-05T07:51:41;42.67;;;9.93;;
18544;SDS011;9402;51.460;7.276;2023-01-05T07:53:44;48.33;;;11.47;;
18544;SDS011;9402;51.460;7.276;2023-01-05T07:55:56;43.97;;;10.30;;
18544;SDS011;9402;51.460;7.276;2023-01-05T07:57:59;38.10;;;9.80;;
18544;SDS011;9402;51.460;7.276;2023-01-05T08:00:03;49.00;;;10.50;;
18544;SDS011;9402;51.460;7.276;2023-01-05T08:02:07;49.70;;;11.23;;
18544;SDS011;9402;51.460;7.276;2023-01-05T08:04:09;57.80;;;10.20;;
18544;SDS011;9402;51.460;7.276;2023-01-05T08:06:12;60.27;;;10.60;;
18544;SDS011;9402;51.460;7.276;2023-01-05T08:08:16;60.83;;;10.80;;
18544;SDS011;9402;51.460;7.276;2023-01-05T08:10:18;46.67;;;10.30;;
18544;SDS011;9402;51.460;7.276;2023-01-05T08:12:29;52.53;;;10.47;;
18544;SDS011;9402;51.460;7.276;2023-01-05T08:14:31;44.70;;;10.40;;
18544;SDS011;9402;51.460;7.276;2023-01-05T08:16:34;56.87;;;9.90;;
18544;SDS011;9402;51.460;7.276;2023-01-05T08:18:36;36.40;;;10.00;;
18544;SDS011;9402;51.460;7.276;2023-01-05T08:20:38;37.37;;;8.90;;
18544;SDS011;9402;51.460;7.276;2023-01-05T08:22:41;40.83;;;9.90;;
18544;SDS011;9402;51.460;7.276;2023-01-05T08:24:43;60.87;;;9.60;;
18544;SDS011;9402;51.460;7.276;2023-01-05T08:26:48;47.63;;;9.97;;
18544;SDS011;9402;51.460;7.276;2023-01-05T08:28:51;52.37;;;9.40;;
18544;SDS011;9402;51.460;7.276;2023-01-05T08:30:58;39.83;;;9.33;;
18544;SDS011;9402;51.460;7.276;2023-01-05T08:33:02;52.77;;;9.23;;
18544;SDS011;9402;51.460;7.276;2023-01-05T08:35:05;42.20;;;8.57;;
18544;SDS011;9402;51.460;7.276;2023-01-05T08:37:08;50.07;;;10.00;;
18544;SDS011;9402;51.460;7.276;2023-01-05T08:39:10;43.43;;;9.00;;
18544;SDS011;9402;51.460;7.276;2023-01-05T08:41:16;44.93;;;10.20;;
18544;SDS011;9402;51.460;7.276;2023-01-05T08:43:19;39.73;;;9.00;;
18544;SDS011;9402;51.460;7.276;2023-01-05T08:45:21;43.43;;;9.10;;
18544;SDS011;9402;51.460;7.276;2023-01-05T08:47:24;48.30;;;9.60;;
18544;SDS011;9402;51.460;7.276;2023-01-05T08:49:27;54.53;;;10.50;;
18544;SDS011;9402;51.460;7.276;2023-01-05T08:51:30;41.13;;;10.10;;
18544;SDS011;9402;51.460;7.276;2023-01-05T08:53:33;39.07;;;9.30;;
18544;SDS011;9402;51.460;7.276;2023-01-05T08:55:35;43.07;;;8.73;;
18544;SDS011;9402;51.460;7.276;2023-01-05T08:57:37;41.47;;;8.53;;
18544;SDS011;9402;51.460;7.276;2023-01-05T08:59:40;44.37;;;9.13;;
18544;SDS011;9402;51.460;7.276;2023-01-05T09:01:43;36.20;;;7.87;;
18544;SDS011;9402;51.460;7.276;2023-01-05T09:03:45;46.30;;;8.80;;
18544;SDS011;9402;51.460;7.276;2023-01-05T09:05:52;41.40;;;8.47;;
18544;SDS011;9402;51.460;7.276;2023-01-05T09:07:58;44.43;;;10.10;;
18544;SDS011;9402;51.460;7.276;2023-01-05T09:10:00;41.33;;;9.17;;
18544;SDS011;9402;51.460;7.276;2023-01-05T09:12:03;56.90;;;9.50;;
18544;SDS011;9402;51.460;7.276;2023-01-05T09:14:06;47.67;;;8.90;;
18544;SDS011;9402;51.460;7.276;2023-01-05T09:16:12;42.57;;;8.90;;
18544;SDS011;9402;51.460;7.276;2023-01-05T09:18:15;32.87;;;8.90;;
18544;SDS011;9402;51.460;7.276;2023-01-05T09:20:18;40.53;;;8.70;;
18544;SDS011;9402;51.460;7.276;2023-01-05T09:22:21;43.10;;;8.63;;
18544;SDS011;9402;51.460;7.276;2023-01-05T09:24:24;43.37;;;12.17;;
18544;SDS011;9402;51.460;7.276;2023-01-05T09:26:26;68.13;;;11.00;;
18544;SDS011;9402;51.460;7.276;2023-01-05T09:28:29;42.50;;;11.03;;
18544;SDS011;9402;51.460;7.276;2023-01-05T09:30:31;47.60;;;11.30;;
18544;SDS011;9402;51.460;7.276;2023-01-05T09:32:35;49.13;;;10.40;;
18544;SDS011;9402;51.460;7.276;2023-01-05T09:34:37;51.73;;;10.40;;
18544;SDS011;9402;51.460;7.276;2023-01-05T09:36:40;61.00;;;11.50;;
18544;SDS011;9402;51.460;7.276;2023-01-05T09:38:44;53.10;;;11.37;;
18544;SDS011;9402;51.460;7.276;2023-01-05T09:40:49;50.70;;;9.77;;
18544;SDS011;9402;51.460;7.276;2023-01-05T09:42:54;41.50;;;10.63;;
18544;SDS011;9402;51.460;7.276;2023-01-05T09:44:58;56.83;;;12.30;;
18544;SDS011;9402;51.460;7.276;2023-01-05T09:47:03;43.57;;;9.87;;
18544;SDS011;9402;51.460;7.276;2023-01-05T09:49:12;42.50;;;11.10;;
18544;SDS011;9402;51.460;7.276;2023-01-05T09:51:20;42.53;;;10.10;;
18544;SDS011;9402;51.460;7.276;2023-01-05T09:53:24;37.40;;;9.73;;
18544;SDS011;9402;51.460;7.276;2023-01-05T09:55:30;44.33;;;10.07;;
18544;SDS011;9402;51.460;7.276;2023-01-05T09:57:34;45.50;;;9.60;;
18544;SDS011;9402;51.460;7.276;2023-01-05T09:59:37;45.20;;;9.93;;
18544;SDS011;9402;51.460;7.276;2023-01-05T10:01:41;49.87;;;9.80;;
18544;SDS011;9402;51.460;7.276;2023-01-05T10:03:46;51.93;;;9.90;;
18544;SDS011;9402;51.460;7.276;2023-01-05T10:05:54;54.83;;;10.00;;
18544;SDS011;9402;51.460;7.276;2023-01-05T10:07:57;44.60;;;10.07;;
18544;SDS011;9402;51.460;7.276;2023-01-05T10:10:04;42.50;;;10.43;;
18544;SDS011;9402;51.460;7.276;2023-01-05T10:12:11;43.80;;;10.60;;
18544;SDS011;9402;51.460;7.276;2023-01-05T10:14:36;78.17;;;10.80;;
18544;SDS011;9402;51.460;7.276;2023-01-05T10:16:41;43.47;;;10.07;;
18544;SDS011;9402;51.460;7.276;2023-01-05T10:18:45;44.03;;;10.37;;
18544;SDS011;9402;51.460;7.276;2023-01-05T10:20:58;53.93;;;10.67;;
18544;SDS011;9402;51.460;7.276;2023-01-05T10:23:05;46.80;;;10.27;;
18544;SDS011;9402;51.460;7.276;2023-01-05T10:25:16;39.93;;;10.90;;
18544;SDS011;9402;51.460;7.276;2023-01-05T10:27:23;35.27;;;9.50;;
18544;SDS011;9402;51.460;7.276;2023-01-05T10:29:28;40.87;;;9.80;;
18544;SDS011;9402;51.460;7.276;2023-01-05T10:31:41;37.63;;;8.77;;
18544;SDS011;9402;51.460;7.276;2023-01-05T10:33:49;51.07;;;9.70;;
18544;SDS011;9402;51.460;7.276;2023-01-05T10:35:56;35.37;;;8.80;;
18544;SDS011;9402;51.460;7.276;2023-01-05T10:38:03;41.47;;;8.43;;
18544;SDS011;9402;51.460;7.276;2023-01-05T10:40:16;42.87;;;9.10;;
18544;SDS011;9402;51.460;7.276;2023-01-05T10:42:33;37.93;;;7.20;;
18544;SDS011;9402;51.460;7.276;2023-01-05T10:44:48;41.70;;;8.10;;
18544;SDS011;9402;51.460;7.276;2023-01-05T10:46:52;44.40;;;7.90;;
18544;SDS011;9402;51.460;7.276;2023-01-05T10:48:55;39.00;;;7.20;;
18544;SDS011;9402;51.460;7.276;2023-01-05T10:50:57;42.50;;;8.30;;
18544;SDS011;9402;51.460;7.276;2023-01-05T10:53:00;42.13;;;8.27;;
18544;SDS011;9402;51.460;7.276;2023-01-05T10:55:10;53.10;;;8.40;;
18544;SDS011;9402;51.460;7.276;2023-01-05T10:57:29;46.83;;;8.53;;
18544;SDS011;9402;51.460;7.276;2023-01-05T10:59:51;40.53;;;9.20;;
18544;SDS011;9402;51.460;7.276;2023-01-05T11:01:55;32.17;;;7.70;;
18544;SDS011;9402;51.460;7.276;2023-01-05T11:04:00;36.70;;;6.73;;
18544;SDS011;9402;51.460;7.276;2023-01-05T11:06:05;37.13;;;7.73;;
18544;SDS011;9402;51.460;7.276;2023-01-05T11:08:12;55.10;;;8.93;;
18544;SDS011;9402;51.460;7.276;2023-01-05T11:10:20;44.83;;;8.20;;
18544;SDS011;9402;51.460;7.276;2023-01-05T11:12:24;39.57;;;6.60;;
18544;SDS011;9402;51.460;7.276;2023-01-05T11:14:28;32.67;;;6.50;;
18544;SDS011;9402;51.460;7.276;2023-01-05T11:16:33;33.80;;;7.07;;
18544;SDS011;9402;51.460;7.276;2023-01-05T11:18:40;47.93;;;7.90;;
18544;SDS011;9402;51.460;7.276;2023-01-05T11:23:07;53.70;;;7.50;;
18544;SDS011;9402;51.460;7.276;2023-01-05T11:25:34;27.63;;;6.60;;
18544;SDS011;9402;51.460;7.276;2023-01-05T11:27:36;36.93;;;6.77;;
18544;SDS011;9402;51.460;7.276;2023-01-05T11:29:40;41.37;;;6.27;;
18544;SDS011;9402;51.460;7.276;2023-01-05T11:31:44;35.30;;;7.13;;
18544;SDS011;9402;51.460;7.276;2023-01-05T11:33:54;32.43;;;6.40;;
18544;SDS011;9402;51.460;7.276;2023-01-05T11:35:57;40.63;;;7.47;;
18544;SDS011;9402;51.460;7.276;2023-01-05T11:38:00;30.53;;;6.50;;
18544;SDS011;9402;51.460;7.276;2023-01-05T11:40:03;47.90;;;8.20;;
18544;SDS011;9402;51.460;7.276;2023-01-05T11:42:13;40.60;;;7.70;;
18544;SDS011;9402;51.460;7.276;2023-01-05T11:44:19;40.77;;;6.63;;
18544;SDS011;9402;51.460;7.276;2023-01-05T11:46:24;32.53;;;6.30;;
18544;SDS011;9402;51.460;7.276;2023-01-05T11:48:27;27.43;;;6.80;;
18544;SDS011;9402;51.460;7.276;2023-01-05T11:50:31;46.60;;;6.70;;
18544;SDS011;9402;51.460;7.276;2023-01-05T11:52:40;38.23;;;7.23;;
18544;SDS011;9402;51.460;7.276;2023-01-05T11:54:43;39.30;;;7.17;;
18544;SDS011;9402;51.460;7.276;2023-01-05T11:56:45;44.77;;;7.00;;
18544;SDS011;9402;51.460;7.276;2023-01-05T11:58:48;36.70;;;7.10;;
18544;SDS011;9402;51.460;7.276;2023-01-05T12:01:05;33.60;;;6.30;;
18544;SDS011;9402;51.460;7.276;2023-01-05T12:03:38;42.20;;;7.13;;
18544;SDS011;9402;51.460;7.276;2023-01-05T12:05:49;27.03;;;5.87;;
18544;SDS011;9402;51.460;7.276;2023-01-05T12:07:54;38.20;;;6.13;;
18544;SDS011;9402;51.460;7.276;2023-01-05T12:10:01;45.40;;;7.80;;
18544;SDS011;9402;51.460;7.276;2023-01-05T12:12:24;32.93;;;5.60;;
18544;SDS011;9402;51.460;7.276;2023-01-05T12:14:41;34.27;;;6.00;;
18544;SDS011;9402;51.460;7.276;2023-01-05T12:16:52;33.57;;;6.20;;
18544;SDS011;9402;51.460;7.276;2023-01-05T12:19:00;40.50;;;6.53;;
18544;SDS011;9402;51.460;7.276;2023-01-05T12:21:11;27.43;;;6.43;;
18544;SDS011;9402;51.460;7.276;2023-01-05T12:23:26;40.40;;;6.23;;
18544;SDS011;9402;51.460;7.276;2023-01-05T12:25:53;38.20;;;6.77;;
18544;SDS011;9402;51.460;7.276;2023-01-05T12:28:06;28.33;;;5.77;;
18544;SDS011;9402;51.460;7.276;2023-01-05T12:30:18;44.57;;;6.53;;
18544;SDS011;9402;51.460;7.276;2023-01-05T12:32:29;30.20;;;5.73;;
18544;SDS011;9402;51.460;7.276;2023-01-05T12:34:56;28.93;;;5.90;;
18544;SDS011;9402;51.460;7.276;2023-01-05T12:37:21;34.57;;;5.77;;
18544;SDS011;9402;51.460;7.276;2023-01-05T12:39:41;34.27;;;5.53;;